createdAt,value
2023-03-30T00:01:32.221Z,76673.59
2023-03-30T00:04:00.132Z,76669.53
2023-03-30T00:06:28.002Z,76677.69
2023-03-30T00:08:58.013Z,76667.47
2023-03-30T00:11:26.905Z,76665.44
2023-03-30T00:13:55.223Z,76661.38
2023-03-30T00:16:24.360Z,76649.13
2023-03-30T00:18:52.403Z,76649.13
2023-03-30T00:21:21.214Z,76647.09
2023-03-30T00:23:49.140Z,76634.84
2023-03-30T00:26:17.955Z,76643.00
2023-03-30T00:28:46.188Z,76638.94
2023-03-30T00:31:13.994Z,76620.56
2023-03-30T00:33:47.173Z,76624.66
2023-03-30T00:36:16.230Z,76618.53
2023-03-30T00:38:45.693Z,76618.53
2023-03-30T00:41:13.694Z,76624.66
2023-03-30T00:43:58.721Z,76628.72
2023-03-30T00:46:26.606Z,76616.50
2023-03-30T00:48:58.775Z,76616.50
2023-03-30T00:51:27.748Z,76618.53
2023-03-30T00:54:00.512Z,76620.56
2023-03-30T00:56:31.261Z,76620.56
2023-03-30T00:59:00.821Z,76624.66
2023-03-30T01:01:29.095Z,76620.56
2023-03-30T01:04:02.192Z,76604.28
2023-03-30T01:06:31.662Z,76600.19
2023-03-30T01:08:59.946Z,76598.16
2023-03-30T01:11:28.167Z,76585.91
2023-03-30T01:14:00.637Z,76585.91
2023-03-30T01:16:37.321Z,76587.94
2023-03-30T01:19:29.572Z,76585.91
2023-03-30T01:22:29.588Z,76577.75
2023-03-30T01:25:24.073Z,76575.72
2023-03-30T01:28:11.152Z,76579.78
2023-03-30T01:31:09.826Z,76575.72
2023-03-30T01:34:07.175Z,76592.03
2023-03-30T01:37:02.339Z,76600.19
2023-03-30T01:39:41.847Z,76596.09
2023-03-30T01:42:19.241Z,76592.03
2023-03-30T01:44:54.456Z,76596.09
2023-03-30T01:47:27.608Z,76583.88
2023-03-30T01:50:00.211Z,76569.59
2023-03-30T01:52:37.011Z,76563.47
2023-03-30T01:55:14.474Z,76555.31
2023-03-30T01:57:49.332Z,76555.31
2023-03-30T02:00:21.288Z,76559.41
2023-03-30T02:02:54.654Z,76555.31
2023-03-30T02:05:24.547Z,76553.28
2023-03-30T02:07:56.459Z,76555.31
2023-03-30T02:10:29.091Z,76534.94
2023-03-30T02:12:59.702Z,76526.78
2023-03-30T02:15:31.421Z,76526.78
2023-03-30T02:17:59.289Z,76534.94
2023-03-30T02:20:28.766Z,76541.06
2023-03-30T02:22:57.234Z,76543.09
2023-03-30T02:25:27.781Z,76547.16
2023-03-30T02:27:55.636Z,76555.31
2023-03-30T02:30:23.455Z,76559.41
2023-03-30T02:32:54.936Z,76559.41
2023-03-30T02:35:50.810Z,76559.41
2023-03-30T02:38:32.269Z,76555.31
2023-03-30T02:41:18.605Z,76549.22
2023-03-30T02:43:56.427Z,76543.09
2023-03-30T02:46:44.832Z,76543.09
2023-03-30T02:49:18.350Z,76534.94
2023-03-30T02:51:50.079Z,76522.69
2023-03-30T02:54:27.687Z,76514.53
2023-03-30T02:57:03.971Z,76514.53
2023-03-30T02:59:39.089Z,76518.63
2023-03-30T03:02:13.323Z,76514.53
2023-03-30T03:04:43.579Z,76506.38
2023-03-30T03:07:12.354Z,76506.38
2023-03-30T03:09:40.134Z,76504.34
2023-03-30T03:12:09.535Z,76504.34
2023-03-30T03:14:37.709Z,76506.38
2023-03-30T03:17:05.920Z,76502.31
2023-03-30T03:19:33.849Z,76492.13
2023-03-30T03:22:01.620Z,76494.16
2023-03-30T03:24:29.608Z,76490.06
2023-03-30T03:26:57.377Z,76471.72
2023-03-30T03:29:27.032Z,76498.22
2023-03-30T03:31:54.772Z,76504.34
2023-03-30T03:34:22.542Z,76506.38
2023-03-30T03:36:53.416Z,76496.19
2023-03-30T03:39:21.593Z,76498.22
2023-03-30T03:41:49.428Z,76498.22
2023-03-30T03:44:17.158Z,76496.19
2023-03-30T03:46:46.317Z,76479.88
2023-03-30T03:49:14.207Z,76486.00
2023-03-30T03:51:41.993Z,76483.97
2023-03-30T03:54:09.737Z,76498.22
2023-03-30T03:56:37.503Z,76498.22
2023-03-30T03:59:05.560Z,76490.06
2023-03-30T04:01:33.525Z,76473.75
2023-03-30T04:04:02.697Z,76461.53
2023-03-30T04:06:30.446Z,76461.53
2023-03-30T04:08:58.239Z,76459.50
2023-03-30T04:11:26.667Z,76459.50
2023-03-30T04:13:54.407Z,76457.44
2023-03-30T04:16:22.176Z,76479.88
2023-03-30T04:18:49.981Z,76483.97
2023-03-30T04:21:20.290Z,76483.97
2023-03-30T04:23:49.214Z,76486.00
2023-03-30T04:26:17.630Z,76490.06
2023-03-30T04:28:46.894Z,76486.00
2023-03-30T04:31:14.942Z,76490.06
2023-03-30T04:33:51.906Z,76486.00
2023-03-30T04:36:21.766Z,76477.84
2023-03-30T04:38:58.650Z,76469.69
2023-03-30T04:41:33.236Z,76473.75
2023-03-30T04:44:03.181Z,76465.63
2023-03-30T04:46:31.076Z,76461.53
2023-03-30T04:48:58.931Z,76465.63
2023-03-30T04:51:28.967Z,76465.63
2023-03-30T04:53:56.703Z,76477.84
2023-03-30T04:56:24.442Z,76475.81
2023-03-30T04:58:52.239Z,76475.81
2023-03-30T05:01:20.015Z,76473.75
2023-03-30T05:03:47.889Z,76469.69
2023-03-30T05:06:16.482Z,76473.75
2023-03-30T05:08:45.654Z,76461.53
2023-03-30T05:11:13.396Z,76461.53
2023-03-30T05:13:41.868Z,76443.19
2023-03-30T05:16:10.505Z,76432.97
2023-03-30T05:18:38.838Z,76428.91
2023-03-30T05:21:07.093Z,76424.84
2023-03-30T05:23:34.878Z,76418.72
2023-03-30T05:26:04.744Z,76402.41
2023-03-30T05:28:32.722Z,76390.16
2023-03-30T05:31:00.814Z,76384.06
2023-03-30T05:33:28.593Z,76386.09
2023-03-30T05:35:56.825Z,76382.00
2023-03-30T05:38:24.716Z,76371.81
2023-03-30T05:40:53.786Z,76365.69
2023-03-30T05:43:23.013Z,76361.63
2023-03-30T05:45:51.169Z,76365.69
2023-03-30T05:48:18.966Z,76361.63
2023-03-30T05:50:48.671Z,76363.66
2023-03-30T05:53:16.641Z,76363.66
2023-03-30T05:55:45.776Z,76357.53
2023-03-30T05:58:13.617Z,76359.59
2023-03-30T06:00:43.911Z,76355.50
2023-03-30T06:03:12.822Z,76353.47
2023-03-30T06:05:41.954Z,76351.44
2023-03-30T06:08:10.260Z,76355.50
2023-03-30T06:10:38.662Z,76357.53
2023-03-30T06:13:06.862Z,76363.66
2023-03-30T06:15:34.593Z,76359.59
2023-03-30T06:18:04.887Z,76349.38
2023-03-30T06:20:33.786Z,76333.06
2023-03-30T06:23:01.733Z,76333.06
2023-03-30T06:25:29.659Z,76322.88
2023-03-30T06:27:57.724Z,76322.88
2023-03-30T06:30:25.603Z,76322.88
2023-03-30T06:32:53.409Z,76302.50
2023-03-30T06:35:22.822Z,76308.59
2023-03-30T06:37:50.559Z,76290.25
2023-03-30T06:40:19.098Z,76306.56
2023-03-30T06:42:47.046Z,76335.13
2023-03-30T06:45:15.540Z,76331.03
2023-03-30T06:47:43.344Z,76333.06
2023-03-30T06:50:11.755Z,76316.75
2023-03-30T06:52:40.873Z,76298.41
2023-03-30T06:55:09.442Z,76273.94
2023-03-30T06:57:37.303Z,76237.25
2023-03-30T07:00:09.417Z,76216.84
2023-03-30T07:02:37.258Z,76212.78
2023-03-30T07:05:06.826Z,76218.91
2023-03-30T07:07:34.756Z,76216.84
2023-03-30T07:10:10.042Z,76212.78
2023-03-30T07:12:38.031Z,76220.94
2023-03-30T07:15:07.132Z,76225.00
2023-03-30T07:17:35.361Z,76229.09
2023-03-30T07:20:04.036Z,76229.09
2023-03-30T07:22:32.035Z,76225.00
2023-03-30T07:24:59.790Z,76235.22
2023-03-30T07:27:29.204Z,76237.25
2023-03-30T07:30:04.614Z,76235.22
2023-03-30T07:32:38.719Z,76237.25
2023-03-30T07:35:08.762Z,76225.00
2023-03-30T07:37:37.646Z,76218.91
2023-03-30T07:40:06.719Z,76212.78
2023-03-30T07:42:36.120Z,76222.97
2023-03-30T07:45:03.989Z,76204.63
2023-03-30T07:47:31.852Z,76196.47
2023-03-30T07:49:59.688Z,76192.41
2023-03-30T07:52:27.551Z,76184.25
2023-03-30T07:54:55.661Z,76172.00
2023-03-30T07:57:23.807Z,76165.88
2023-03-30T07:59:52.993Z,76159.78
2023-03-30T08:02:20.776Z,76159.78
2023-03-30T08:04:48.834Z,76155.69
2023-03-30T08:07:17.804Z,76159.78
2023-03-30T08:09:46.190Z,76155.69
2023-03-30T08:12:13.989Z,76155.69
2023-03-30T08:14:41.799Z,76161.81
2023-03-30T08:17:13.719Z,76157.72
2023-03-30T08:19:41.518Z,76151.63
2023-03-30T08:22:09.314Z,76143.47
2023-03-30T08:24:37.097Z,76119.00
2023-03-30T08:27:04.900Z,76106.75
2023-03-30T08:29:33.699Z,76096.56
2023-03-30T08:32:01.552Z,76082.28
2023-03-30T08:34:30.824Z,76074.16
2023-03-30T08:36:59.056Z,76063.94
2023-03-30T08:39:27.140Z,76053.75
2023-03-30T08:42:12.051Z,76051.72
2023-03-30T08:44:41.435Z,76041.53
2023-03-30T08:47:14.647Z,76037.44
2023-03-30T08:49:48.576Z,76037.44
2023-03-30T08:52:23.931Z,76033.38
2023-03-30T08:54:52.125Z,76033.38
2023-03-30T08:57:33.188Z,76023.19
2023-03-30T09:00:13.156Z,76021.13
2023-03-30T09:02:45.543Z,76008.91
2023-03-30T09:05:23.095Z,75998.72
2023-03-30T09:08:01.203Z,75992.59
2023-03-30T09:10:33.205Z,75984.44
2023-03-30T09:13:03.406Z,75974.25
2023-03-30T09:15:36.171Z,75974.25
2023-03-30T09:18:16.738Z,75968.13
2023-03-30T09:20:47.981Z,75962.00
2023-03-30T09:23:17.736Z,75959.97
2023-03-30T09:25:53.505Z,75957.94
2023-03-30T09:28:28.596Z,75962.00
2023-03-30T09:31:02.750Z,75955.91
2023-03-30T09:33:38.341Z,75955.91
2023-03-30T09:36:14.570Z,75945.69
2023-03-30T09:38:42.967Z,75939.59
2023-03-30T09:41:35.531Z,75923.28
2023-03-30T09:44:03.552Z,75902.88
2023-03-30T09:46:31.548Z,75880.47
2023-03-30T09:49:14.935Z,75860.06
2023-03-30T09:52:02.382Z,75829.50
2023-03-30T09:54:47.322Z,75811.16
2023-03-30T09:57:30.453Z,75800.97
2023-03-30T10:00:00.440Z,75788.72
2023-03-30T10:02:31.375Z,75776.50
2023-03-30T10:05:03.265Z,75764.25
2023-03-30T10:07:36.537Z,75752.03
2023-03-30T10:10:15.770Z,75731.66
2023-03-30T10:12:43.892Z,75719.41
2023-03-30T10:15:17.378Z,75709.22
2023-03-30T10:17:47.793Z,75699.03
2023-03-30T10:20:24.538Z,75692.91
2023-03-30T10:22:55.472Z,75690.88
2023-03-30T10:25:24.918Z,75678.63
2023-03-30T10:27:55.910Z,75676.59
2023-03-30T10:30:27.079Z,75650.09
2023-03-30T10:32:58.581Z,75631.75
2023-03-30T10:35:29.175Z,75613.41
2023-03-30T10:37:59.143Z,75597.09
2023-03-30T10:40:33.385Z,75588.94
2023-03-30T10:43:03.418Z,75586.91
2023-03-30T10:45:37.627Z,75580.78
2023-03-30T10:48:24.352Z,75556.34
2023-03-30T10:50:58.653Z,75521.69
2023-03-30T10:53:36.268Z,75478.88
2023-03-30T10:56:13.975Z,75427.91
2023-03-30T10:58:55.960Z,75417.72
2023-03-30T11:01:32.786Z,75393.25
2023-03-30T11:04:20.360Z,75354.53
2023-03-30T11:06:54.545Z,75295.41
2023-03-30T11:09:29.859Z,75254.66
2023-03-30T11:12:01.655Z,75226.13
2023-03-30T11:14:47.544Z,75156.81
2023-03-30T11:17:22.395Z,75120.13
2023-03-30T11:19:56.330Z,75103.81
2023-03-30T11:22:33.560Z,75085.47
2023-03-30T11:25:09.478Z,75075.28
2023-03-30T11:27:45.418Z,75065.09
2023-03-30T11:30:19.356Z,75054.91
2023-03-30T11:32:53.972Z,75046.75
2023-03-30T11:35:32.970Z,75010.06
2023-03-30T11:38:05.993Z,74983.56
2023-03-30T11:40:43.624Z,74953.00
2023-03-30T11:43:12.658Z,74944.84
2023-03-30T11:45:53.042Z,74936.69
2023-03-30T11:48:59.640Z,74953.00
2023-03-30T11:51:54.263Z,74959.13
2023-03-30T11:55:07.808Z,74971.34
2023-03-30T11:57:41.521Z,74995.81
2023-03-30T12:00:27.357Z,74993.75
2023-03-30T12:03:06.553Z,74977.47
2023-03-30T12:05:37.425Z,74944.84
2023-03-30T12:08:19.246Z,74926.50
2023-03-30T12:10:52.297Z,74920.38
2023-03-30T12:13:21.964Z,74881.66
2023-03-30T12:15:55.787Z,74861.28
2023-03-30T12:18:33.120Z,74873.50
2023-03-30T12:21:15.616Z,74859.25
2023-03-30T12:23:48.297Z,74847.00
2023-03-30T12:26:27.984Z,74865.34
2023-03-30T12:32:08.230Z,74863.31
2023-03-30T12:34:38.446Z,74844.97
2023-03-30T12:37:10.225Z,74851.09
2023-03-30T12:39:49.053Z,74847.00
2023-03-30T12:42:27.115Z,74842.94
2023-03-30T12:45:31.646Z,74849.06
2023-03-30T12:48:22.159Z,74849.06
2023-03-30T12:51:02.725Z,74851.09
2023-03-30T12:54:02.923Z,74851.09
2023-03-30T12:56:38.863Z,74842.94
2023-03-30T12:59:41.125Z,74830.72
2023-03-30T13:02:31.536Z,74834.78
2023-03-30T13:04:59.437Z,74822.56
2023-03-30T13:07:31.349Z,74802.19
2023-03-30T13:10:01.899Z,74789.94
2023-03-30T13:12:39.868Z,74769.56
2023-03-30T13:15:44.254Z,74716.59
2023-03-30T13:18:40.783Z,74667.69
2023-03-30T13:21:23.132Z,74683.97
2023-03-30T13:24:25.896Z,74690.09
2023-03-30T13:26:54.100Z,74700.28
2023-03-30T13:29:26.220Z,74702.31
2023-03-30T13:32:18.934Z,74718.63
2023-03-30T13:35:07.013Z,74726.78
2023-03-30T13:37:53.900Z,74734.94
2023-03-30T13:40:39.623Z,74739.00
2023-03-30T13:43:22.360Z,74749.19
2023-03-30T13:46:13.073Z,74757.34
2023-03-30T13:49:02.764Z,74759.38
2023-03-30T13:51:32.951Z,74761.41
2023-03-30T13:54:04.103Z,74777.72
2023-03-30T13:56:33.353Z,74779.75
2023-03-30T13:59:06.166Z,74794.03
2023-03-30T14:01:39.333Z,74806.25
2023-03-30T14:04:11.915Z,74812.38
2023-03-30T14:06:45.724Z,74834.78
2023-03-30T14:09:20.026Z,74842.94
2023-03-30T14:11:50.832Z,74851.09
2023-03-30T14:14:23.988Z,74863.31
2023-03-30T14:16:52.794Z,74875.56
2023-03-30T14:19:25.318Z,74887.78
2023-03-30T14:21:57.909Z,74906.13
2023-03-30T14:24:30.872Z,74906.13
2023-03-30T14:27:07.628Z,74932.63
2023-03-30T14:29:35.390Z,74942.81
2023-03-30T14:32:09.201Z,74953.00
2023-03-30T14:34:38.389Z,74969.31
2023-03-30T14:37:09.268Z,74981.53
2023-03-30T14:39:41.034Z,74993.75
2023-03-30T14:42:17.805Z,75008.03
2023-03-30T14:44:48.424Z,75012.09
2023-03-30T14:47:19.207Z,75024.34
2023-03-30T14:49:47.881Z,75048.78
2023-03-30T14:52:19.825Z,75067.13
2023-03-30T14:55:04.319Z,75087.50
2023-03-30T14:57:37.916Z,75136.44
2023-03-30T15:00:20.471Z,75175.16
2023-03-30T15:02:51.278Z,75199.63
2023-03-30T15:05:20.695Z,75213.88
2023-03-30T15:07:51.961Z,75230.19
2023-03-30T15:10:25.112Z,75262.81
2023-03-30T15:12:56.134Z,75283.19
2023-03-30T15:15:27.661Z,75299.50
2023-03-30T15:17:56.539Z,75309.69
2023-03-30T15:20:26.656Z,75313.75
2023-03-30T15:22:56.978Z,75315.81
2023-03-30T15:25:31.960Z,75338.22
2023-03-30T15:28:03.621Z,75354.53
2023-03-30T15:30:36.493Z,75352.50
2023-03-30T15:33:05.885Z,75364.72
2023-03-30T15:35:35.958Z,75385.09
2023-03-30T15:38:16.802Z,75413.66
2023-03-30T15:40:46.441Z,75434.03
2023-03-30T15:43:20.019Z,75429.94
2023-03-30T15:45:51.540Z,75442.19
2023-03-30T15:48:22.449Z,75444.22
2023-03-30T15:50:55.459Z,75438.09
2023-03-30T15:53:35.088Z,75442.19
2023-03-30T15:56:03.927Z,75442.19
2023-03-30T15:58:31.696Z,75442.19
2023-03-30T16:00:59.521Z,75429.94
2023-03-30T16:03:38.715Z,75434.03
2023-03-30T16:06:07.388Z,75442.19
2023-03-30T16:08:41.935Z,75452.38
2023-03-30T16:11:09.940Z,75454.41
2023-03-30T16:13:41.635Z,75454.41
2023-03-30T16:16:11.080Z,75454.41
2023-03-30T16:18:40.765Z,75454.41
2023-03-30T16:21:10.893Z,75472.75
2023-03-30T16:23:40.299Z,75468.69
2023-03-30T16:26:09.733Z,75470.72
2023-03-30T16:28:37.550Z,75472.75
2023-03-30T16:31:12.776Z,75478.88
2023-03-30T16:33:40.580Z,75489.06
2023-03-30T16:36:08.868Z,75501.28
2023-03-30T16:38:36.671Z,75511.47
2023-03-30T16:41:06.913Z,75523.72
2023-03-30T16:43:34.833Z,75527.78
2023-03-30T16:46:02.615Z,75525.75
2023-03-30T16:48:30.455Z,75523.72
2023-03-30T16:50:58.445Z,75540.03
2023-03-30T16:53:26.180Z,75535.94
2023-03-30T16:55:54.010Z,75544.09
2023-03-30T16:58:23.162Z,75544.09
2023-03-30T17:00:53.251Z,75544.09
2023-03-30T17:03:21.727Z,75552.25
2023-03-30T17:05:49.796Z,75556.34
2023-03-30T17:08:21.913Z,75564.47
2023-03-30T17:10:49.684Z,75564.47
2023-03-30T17:13:17.709Z,75566.53
2023-03-30T17:15:46.848Z,75570.59
2023-03-30T17:18:16.974Z,75572.63
2023-03-30T17:20:48.312Z,75578.75
2023-03-30T17:23:16.870Z,75588.94
2023-03-30T17:25:46.320Z,75595.06
2023-03-30T17:28:21.211Z,75601.19
2023-03-30T17:30:51.494Z,75605.25
2023-03-30T17:33:19.309Z,75605.25
2023-03-30T17:35:49.613Z,75597.09
2023-03-30T17:38:17.922Z,75584.88
2023-03-30T17:40:46.148Z,75562.44
2023-03-30T17:43:14.539Z,75582.84
2023-03-30T17:45:43.238Z,75593.03
2023-03-30T17:48:14.724Z,75599.13
2023-03-30T17:50:46.024Z,75605.25
2023-03-30T17:53:14.732Z,75613.41
2023-03-30T17:55:42.564Z,75613.41
2023-03-30T17:58:18.089Z,75609.34
2023-03-30T18:00:47.364Z,75617.50
2023-03-30T18:03:17.561Z,75627.69
2023-03-30T18:05:46.255Z,75625.63
2023-03-30T18:08:17.408Z,75633.78
2023-03-30T18:10:48.495Z,75633.78
2023-03-30T18:13:16.935Z,75629.72
2023-03-30T18:15:46.039Z,75635.84
2023-03-30T18:18:22.491Z,75635.84
2023-03-30T18:20:51.589Z,75629.72
2023-03-30T18:23:19.727Z,75615.44
2023-03-30T18:25:47.998Z,75621.56
2023-03-30T18:28:18.307Z,75605.25
2023-03-30T18:30:46.396Z,75605.25
2023-03-30T18:33:17.247Z,75605.25
2023-03-30T18:35:47.108Z,75611.38
2023-03-30T18:38:17.514Z,75617.50
2023-03-30T18:40:49.282Z,75613.41
2023-03-30T18:43:17.857Z,75621.56
2023-03-30T18:45:48.493Z,75609.34
2023-03-30T18:48:21.182Z,75605.25
2023-03-30T18:50:50.376Z,75617.50
2023-03-30T18:53:20.317Z,75621.56
2023-03-30T18:55:50.410Z,75629.72
2023-03-30T18:58:21.360Z,75629.72
2023-03-30T19:00:50.344Z,75637.88
2023-03-30T19:03:20.578Z,75652.13
2023-03-30T19:05:49.077Z,75662.34
2023-03-30T19:08:18.825Z,75664.38
2023-03-30T19:10:49.432Z,75646.03
2023-03-30T19:13:19.646Z,75646.03
2023-03-30T19:15:49.065Z,75652.13
2023-03-30T19:18:17.901Z,75641.94
2023-03-30T19:20:49.341Z,75644.00
2023-03-30T19:23:18.113Z,75652.13
2023-03-30T19:25:46.782Z,75654.19
2023-03-30T19:28:15.882Z,75654.19
2023-03-30T19:30:44.358Z,75652.13
2023-03-30T19:33:16.119Z,75658.25
2023-03-30T19:35:45.727Z,75658.25
2023-03-30T19:38:15.794Z,75662.34
2023-03-30T19:40:43.952Z,75658.25
2023-03-30T19:43:12.296Z,75658.25
2023-03-30T19:45:40.741Z,75648.06
2023-03-30T19:48:09.636Z,75656.22
2023-03-30T19:50:38.524Z,75658.25
2023-03-30T19:53:06.641Z,75666.41
2023-03-30T19:55:35.825Z,75670.50
2023-03-30T19:58:03.653Z,75674.56
2023-03-30T20:00:34.733Z,75678.63
2023-03-30T20:03:02.752Z,75672.53
2023-03-30T20:05:30.966Z,75670.50
2023-03-30T20:07:59.412Z,75682.72
2023-03-30T20:10:28.819Z,75690.88
2023-03-30T20:12:57.983Z,75694.94
2023-03-30T20:15:26.559Z,75694.94
2023-03-30T20:17:56.522Z,75701.06
2023-03-30T20:20:26.068Z,75690.88
2023-03-30T20:22:56.523Z,75692.91
2023-03-30T20:25:25.408Z,75690.88
2023-03-30T20:27:53.472Z,75694.94
2023-03-30T20:30:22.772Z,75684.75
2023-03-30T20:33:06.142Z,75662.34
2023-03-30T20:35:36.305Z,75670.50
2023-03-30T20:38:04.852Z,75652.13
2023-03-30T20:40:33.106Z,75650.09
2023-03-30T20:43:02.238Z,75639.91
2023-03-30T20:45:31.843Z,75629.72
2023-03-30T20:48:06.051Z,75633.78
2023-03-30T20:50:34.828Z,75641.94
2023-03-30T20:53:02.674Z,75666.41
2023-03-30T20:55:30.427Z,75694.94
2023-03-30T20:57:58.228Z,75723.50
2023-03-30T21:00:26.177Z,75731.66
2023-03-30T21:02:55.469Z,75733.69
2023-03-30T21:05:23.295Z,75743.88
2023-03-30T21:07:54.051Z,75772.41
2023-03-30T21:10:22.157Z,75780.56
2023-03-30T21:12:49.951Z,75796.88
2023-03-30T21:15:18.115Z,75788.72
2023-03-30T21:17:45.869Z,75800.97
2023-03-30T21:20:15.956Z,75800.97
2023-03-30T21:22:43.802Z,75774.47
2023-03-30T21:25:12.737Z,75784.66
2023-03-30T21:27:40.769Z,75809.13
2023-03-30T21:30:10.736Z,75829.50
2023-03-30T21:32:38.554Z,75825.41
2023-03-30T21:35:06.823Z,75825.41
2023-03-30T21:37:35.982Z,75837.66
2023-03-30T21:40:03.776Z,75847.84
2023-03-30T21:42:34.579Z,75849.88
2023-03-30T21:45:02.499Z,75856.00
2023-03-30T21:47:30.439Z,75858.03
2023-03-30T21:49:58.277Z,75858.03
2023-03-30T21:52:26.016Z,75868.22
2023-03-30T21:54:55.154Z,75870.28
2023-03-30T21:57:22.989Z,75872.31
2023-03-30T21:59:50.743Z,75880.47
2023-03-30T22:02:18.563Z,75886.56
2023-03-30T22:04:46.392Z,75884.53
2023-03-30T22:07:14.143Z,75892.69
2023-03-30T22:09:42.151Z,75882.50
2023-03-30T22:12:11.285Z,75886.56
2023-03-30T22:14:39.019Z,75872.31
2023-03-30T22:17:07.818Z,75878.44
2023-03-30T22:19:35.693Z,75870.28
2023-03-30T22:22:04.745Z,75868.22
2023-03-30T22:24:32.460Z,75866.19
2023-03-30T22:27:00.265Z,75860.06
2023-03-30T22:29:29.396Z,75858.03
2023-03-30T22:31:57.153Z,75858.03
2023-03-30T22:34:24.952Z,75868.22
2023-03-30T22:36:52.966Z,75866.19
2023-03-30T22:39:21.080Z,75874.34
2023-03-30T22:41:48.874Z,75878.44
2023-03-30T22:44:17.798Z,75884.53
2023-03-30T22:46:46.954Z,75888.63
2023-03-30T22:49:15.422Z,75892.69
2023-03-30T22:51:52.701Z,75898.81
2023-03-30T22:54:21.377Z,75906.97
2023-03-30T22:56:49.717Z,75923.28
2023-03-30T22:59:17.541Z,75931.44
2023-03-30T23:01:46.813Z,75939.59
2023-03-30T23:04:14.556Z,75939.59
2023-03-30T23:06:42.395Z,75949.78
2023-03-30T23:09:13.532Z,75949.78
2023-03-30T23:11:45.848Z,75955.91
2023-03-30T23:14:14.315Z,75964.06
2023-03-30T23:16:42.461Z,75955.91
2023-03-30T23:19:12.106Z,75955.91
2023-03-30T23:21:41.014Z,75959.97
2023-03-30T23:24:11.832Z,75976.28
2023-03-30T23:26:39.563Z,75980.34
2023-03-30T23:29:07.516Z,75968.13
2023-03-30T23:31:35.634Z,75964.06
2023-03-30T23:34:03.491Z,75953.84
2023-03-30T23:36:32.623Z,75943.66
2023-03-30T23:39:00.345Z,75949.78
2023-03-30T23:41:29.071Z,75951.81
2023-03-30T23:43:56.929Z,75953.84
2023-03-30T23:46:25.521Z,75951.81
2023-03-30T23:48:53.496Z,75951.81
2023-03-30T23:51:21.296Z,75955.91
2023-03-30T23:53:54.389Z,75970.16
2023-03-30T23:56:25.815Z,75976.28
2023-03-30T23:58:53.878Z,75992.59
